Sunday, April 19, 2015, 6:52 PM EDT

KGED, Georgetown Sussex Co Airport

Location: Georgetown, DE, United States Lat: 38.683
Local Time: 6:52 PM EDT (22:52 GMT) Lon: -75.367
Time Zone: US/Eastern Elev: 52 ft

Show me the last for .
Show Decoded

2015-04-19 17:54 METAR KGED 192154Z AUTO 08012KT 10SM OVC029 11/07 A3014 RMK AO2 SLP204 T01110067
                 =
2015-04-19 17:30 METAR KGED 192130Z AUTO 07011KT 10SM BKN029 OVC036 11/07 A3013 RMK AO2 T01110067
                 =
2015-04-19 16:54 METAR KGED 192054Z AUTO 09013KT 10SM OVC034 12/07 A3015 RMK AO2 SLP207 T01220067
                 55010 =
2015-04-19 15:54 METAR KGED 191954Z AUTO 08015G24KT 10SM SCT035 14/06 A3014 RMK AO2 SLP205
                 T01440061 =
2015-04-19 14:54 METAR KGED 191854Z AUTO 08014G23KT 10SM CLR 16/05 A3016 RMK AO2 PK WND
                 12028/1809 SLP210 T01560050 =
2015-04-19 12:54 METAR KGED 191654Z AUTO 08016G23KT 10SM CLR 14/06 A3020 RMK AO2 PK WND
                 11029/1619 SLP227 T01390056 =
2015-04-19 11:54 METAR KGED 191554Z AUTO 10018G28KT 10SM CLR 16/07 A3021 RMK AO2 PK WND
                 07029/1510 SLP228 T01560067 =
2015-04-19 10:54 METAR KGED 191454Z AUTO 07016KT 10SM CLR 16/07 A3021 RMK AO2 PK WND 07026/1429
                 SLP228 T01610067 51010 =
2015-04-19 09:54 METAR KGED 191354Z AUTO 08015KT 10SM CLR 14/07 A3020 RMK AO2 SLP225 T01440072 =
2015-04-19 08:54 METAR KGED 191254Z AUTO 08012KT 10SM CLR 13/08 A3019 RMK AO2 SLP221 T01330078 =
2015-04-19 07:54 METAR KGED 191154Z AUTO 08011KT 10SM CLR 13/06 A3018 RMK AO2 SLP218 T01280061
                 10161 20122 53029 =
2015-04-19 06:54 METAR KGED 191054Z AUTO 08010KT 10SM CLR 12/04 A3015 RMK AO2 SLP209 T01220044 =
2015-04-19 05:54 METAR KGED 190954Z AUTO 07013KT 10SM CLR 14/02 A3011 RMK AO2 SLP196 T01390022 =
2015-04-19 04:54 METAR KGED 190854Z AUTO 09010G18KT 10SM CLR 15/03 A3009 RMK AO2 SLP189 T01500028
                 53009 =
2015-04-19 03:54 METAR KGED 190754Z AUTO 07011G17KT 10SM CLR 16/08 A3007 RMK AO2 SLP183 T01610078
                 =
2015-04-19 02:54 METAR KGED 190654Z AUTO 00000KT 10SM CLR 13/11 A3006 RMK AO2 SLP179 T01330106 =
2015-04-19 01:54 METAR KGED 190554Z AUTO 01009KT 10SM CLR 16/11 A3006 RMK AO2 PRESRR SLP179
                 T01560111 10194 20139 53018 =
2015-04-19 00:54 METAR KGED 190454Z AUTO 22007KT 10SM CLR 16/11 A3001 RMK AO2 SLP162 T01560111
                 402500122 =
2015-04-18 23:54 METAR KGED 190354Z AUTO 22006KT 10SM CLR 16/11 A3001 RMK AO2 SLP161 T01560106 =
2015-04-18 22:54 METAR KGED 190254Z AUTO 21004KT 10SM CLR 16/10 A3001 RMK AO2 SLP162 T01560100
                 51012 =
2015-04-18 20:54 METAR KGED 190054Z AUTO 18005KT 10SM CLR 18/11 A3000 RMK AO2 SLP156 T01780106 =
2015-04-18 19:54 METAR KGED 182354Z AUTO 14010G14KT 10SM CLR 18/12 A2998 RMK AO2 SLP150 T01830122
                 10250 20183 51011 =
2015-04-18 18:54 METAR KGED 182254Z AUTO 19006KT 9SM CLR 24/11 A2998 RMK AO2 SLP150 T02390111 =

Support USWX by starting your Amazon purchase here.